sensor_id;sensor_type;location;lat;lon;timestamp;pressure;altitude;pressure_sealevel;temperature;humidity
23635;BME280;11994;51.038;16.974;2023-01-09T00:02:04;98955.25;;;4.43;86.31
23635;BME280;11994;51.038;16.974;2023-01-09T00:04:30;98954.10;;;4.40;86.47
23635;BME280;11994;51.038;16.974;2023-01-09T00:06:55;98955.80;;;4.42;86.82
23635;BME280;11994;51.038;16.974;2023-01-09T00:09:22;98953.20;;;4.51;87.05
23635;BME280;11994;51.038;16.974;2023-01-09T00:11:49;98947.70;;;4.58;86.85
23635;BME280;11994;51.038;16.974;2023-01-09T00:14:15;98946.19;;;4.55;86.63
23635;BME280;11994;51.038;16.974;2023-01-09T00:16:41;98945.84;;;4.55;86.56
23635;BME280;11994;51.038;16.974;2023-01-09T00:19:07;98949.90;;;4.52;86.43
23635;BME280;11994;51.038;16.974;2023-01-09T00:21:32;98957.86;;;4.52;86.37
23635;BME280;11994;51.038;16.974;2023-01-09T00:23:58;98956.45;;;4.44;86.06
23635;BME280;11994;51.038;16.974;2023-01-09T00:26:23;98957.88;;;4.32;85.91
23635;BME280;11994;51.038;16.974;2023-01-09T00:28:50;98955.20;;;4.27;86.13
23635;BME280;11994;51.038;16.974;2023-01-09T00:31:17;98955.61;;;4.33;86.59
23635;BME280;11994;51.038;16.974;2023-01-09T00:34:06;98957.00;;;4.42;86.89
23635;BME280;11994;51.038;16.974;2023-01-09T00:36:34;98956.10;;;4.53;86.78
23635;BME280;11994;51.038;16.974;2023-01-09T00:38:59;98961.75;;;4.47;86.09
23635;BME280;11994;51.038;16.974;2023-01-09T00:41:33;98960.71;;;4.30;85.79
23635;BME280;11994;51.038;16.974;2023-01-09T00:44:17;98963.29;;;4.21;86.13
23635;BME280;11994;51.038;16.974;2023-01-09T00:46:49;98953.77;;;4.22;86.43
23635;BME280;11994;51.038;16.974;2023-01-09T00:49:16;98946.40;;;4.18;86.10
23635;BME280;11994;51.038;16.974;2023-01-09T00:51:42;98952.11;;;4.08;85.98
23635;BME280;11994;51.038;16.974;2023-01-09T00:54:10;98955.08;;;3.97;85.80
23635;BME280;11994;51.038;16.974;2023-01-09T00:56:37;98954.39;;;3.87;85.92
23635;BME280;11994;51.038;16.974;2023-01-09T00:59:03;98953.29;;;3.81;86.12
23635;BME280;11994;51.038;16.974;2023-01-09T01:01:29;98949.20;;;3.77;86.55
23635;BME280;11994;51.038;16.974;2023-01-09T01:03:54;98948.69;;;3.77;86.57
23635;BME280;11994;51.038;16.974;2023-01-09T01:06:20;98953.06;;;3.74;86.58
23635;BME280;11994;51.038;16.974;2023-01-09T01:09:04;98952.59;;;3.71;86.74
23635;BME280;11994;51.038;16.974;2023-01-09T01:11:31;98948.98;;;3.70;86.87
23635;BME280;11994;51.038;16.974;2023-01-09T01:13:56;98946.36;;;3.72;87.05
23635;BME280;11994;51.038;16.974;2023-01-09T01:16:22;98943.70;;;3.75;87.06
23635;BME280;11994;51.038;16.974;2023-01-09T01:18:47;98951.27;;;3.78;87.11
23635;BME280;11994;51.038;16.974;2023-01-09T01:21:14;98956.68;;;3.75;87.31
23635;BME280;11994;51.038;16.974;2023-01-09T01:23:40;98958.99;;;3.71;87.43
23635;BME280;11994;51.038;16.974;2023-01-09T01:26:09;98949.68;;;3.70;87.48
23635;BME280;11994;51.038;16.974;2023-01-09T01:28:35;98947.03;;;3.72;87.47
23635;BME280;11994;51.038;16.974;2023-01-09T01:31:00;98949.69;;;3.70;87.34
23635;BME280;11994;51.038;16.974;2023-01-09T01:33:26;98940.21;;;3.67;87.26
23635;BME280;11994;51.038;16.974;2023-01-09T01:35:59;98934.55;;;3.65;87.33
23635;BME280;11994;51.038;16.974;2023-01-09T01:38:25;98931.23;;;3.67;87.47
23635;BME280;11994;51.038;16.974;2023-01-09T01:40:53;98924.29;;;3.68;87.69
23635;BME280;11994;51.038;16.974;2023-01-09T01:43:18;98922.20;;;3.70;87.72
23635;BME280;11994;51.038;16.974;2023-01-09T01:45:44;98918.24;;;3.68;87.74
23635;BME280;11994;51.038;16.974;2023-01-09T01:48:23;98913.38;;;3.70;87.80
23635;BME280;11994;51.038;16.974;2023-01-09T01:58:22;98886.46;;;3.77;87.80
23635;BME280;11994;51.038;16.974;2023-01-09T02:00:47;98886.09;;;3.77;87.86
23635;BME280;11994;51.038;16.974;2023-01-09T02:03:18;98882.91;;;3.72;87.59
23635;BME280;11994;51.038;16.974;2023-01-09T02:05:44;98874.36;;;3.67;87.62
23635;BME280;11994;51.038;16.974;2023-01-09T02:08:10;98870.59;;;3.65;87.75
23635;BME280;11994;51.038;16.974;2023-01-09T02:10:36;98861.55;;;3.59;87.42
23635;BME280;11994;51.038;16.974;2023-01-09T02:13:03;98860.73;;;3.55;87.50
23635;BME280;11994;51.038;16.974;2023-01-09T02:15:37;98859.41;;;3.53;87.47
23635;BME280;11994;51.038;16.974;2023-01-09T02:18:24;98857.62;;;3.46;87.28
23635;BME280;11994;51.038;16.974;2023-01-09T02:20:59;98858.48;;;3.37;87.43
23635;BME280;11994;51.038;16.974;2023-01-09T02:26:36;98844.55;;;3.32;87.52
23635;BME280;11994;51.038;16.974;2023-01-09T02:32:01;98839.67;;;3.25;87.65
23635;BME280;11994;51.038;16.974;2023-01-09T02:40:28;98811.88;;;3.34;88.12
23635;BME280;11994;51.038;16.974;2023-01-09T02:42:58;98805.73;;;3.30;88.12
23635;BME280;11994;51.038;16.974;2023-01-09T02:45:24;98797.75;;;3.32;88.42
23635;BME280;11994;51.038;16.974;2023-01-09T02:47:49;98796.59;;;3.39;88.65
23635;BME280;11994;51.038;16.974;2023-01-09T02:50:25;98789.90;;;3.45;88.64
23635;BME280;11994;51.038;16.974;2023-01-09T03:05:58;98773.23;;;3.59;89.28
23635;BME280;11994;51.038;16.974;2023-01-09T03:08:41;98772.78;;;3.55;89.31
23635;BME280;11994;51.038;16.974;2023-01-09T03:11:08;98774.08;;;3.51;89.38
23635;BME280;11994;51.038;16.974;2023-01-09T03:13:43;98776.80;;;3.52;89.63
23635;BME280;11994;51.038;16.974;2023-01-09T03:16:13;98775.70;;;3.56;89.70
23635;BME280;11994;51.038;16.974;2023-01-09T03:18:41;98774.06;;;3.60;89.72
23635;BME280;11994;51.038;16.974;2023-01-09T03:21:08;98777.12;;;3.63;89.80
23635;BME280;11994;51.038;16.974;2023-01-09T03:24:04;98777.39;;;3.68;89.78
23635;BME280;11994;51.038;16.974;2023-01-09T03:26:30;98777.49;;;3.71;89.67
23635;BME280;11994;51.038;16.974;2023-01-09T03:28:56;98776.77;;;3.73;89.64
23635;BME280;11994;51.038;16.974;2023-01-09T03:31:22;98771.69;;;3.76;89.54
23635;BME280;11994;51.038;16.974;2023-01-09T03:33:48;98766.09;;;3.79;89.48
23635;BME280;11994;51.038;16.974;2023-01-09T03:36:15;98759.14;;;3.81;89.55
23635;BME280;11994;51.038;16.974;2023-01-09T03:38:41;98756.02;;;3.82;89.46
23635;BME280;11994;51.038;16.974;2023-01-09T03:41:06;98750.96;;;3.84;89.53
23635;BME280;11994;51.038;16.974;2023-01-09T03:43:32;98743.70;;;3.83;89.50
23635;BME280;11994;51.038;16.974;2023-01-09T03:45:58;98739.06;;;3.83;89.60
23635;BME280;11994;51.038;16.974;2023-01-09T03:48:23;98732.86;;;3.81;89.61
23635;BME280;11994;51.038;16.974;2023-01-09T03:50:52;98724.91;;;3.81;89.71
23635;BME280;11994;51.038;16.974;2023-01-09T03:53:20;98724.85;;;3.84;90.00
23635;BME280;11994;51.038;16.974;2023-01-09T03:55:47;98721.65;;;3.89;90.03
23635;BME280;11994;51.038;16.974;2023-01-09T03:58:14;98721.36;;;3.85;89.52
23635;BME280;11994;51.038;16.974;2023-01-09T04:00:40;98721.58;;;3.75;89.25
23635;BME280;11994;51.038;16.974;2023-01-09T04:03:06;98717.25;;;3.66;89.06
23635;BME280;11994;51.038;16.974;2023-01-09T04:05:32;98715.79;;;3.62;89.29
23635;BME280;11994;51.038;16.974;2023-01-09T04:07:58;98713.20;;;3.62;89.33
23635;BME280;11994;51.038;16.974;2023-01-09T04:10:24;98716.84;;;3.61;89.44
23635;BME280;11994;51.038;16.974;2023-01-09T04:12:49;98712.41;;;3.58;89.49
23635;BME280;11994;51.038;16.974;2023-01-09T04:15:15;98712.11;;;3.56;89.68
23635;BME280;11994;51.038;16.974;2023-01-09T04:17:40;98714.11;;;3.59;90.13
23635;BME280;11994;51.038;16.974;2023-01-09T04:20:06;98716.34;;;3.61;90.17
23635;BME280;11994;51.038;16.974;2023-01-09T04:22:31;98724.95;;;3.62;90.17
23635;BME280;11994;51.038;16.974;2023-01-09T04:24:56;98727.52;;;3.63;90.16
23635;BME280;11994;51.038;16.974;2023-01-09T04:27:22;98726.79;;;3.65;90.25
23635;BME280;11994;51.038;16.974;2023-01-09T04:29:47;98716.91;;;3.67;90.28
23635;BME280;11994;51.038;16.974;2023-01-09T04:32:13;98702.15;;;3.70;90.38
23635;BME280;11994;51.038;16.974;2023-01-09T04:34:38;98686.82;;;3.75;90.61
23635;BME280;11994;51.038;16.974;2023-01-09T04:37:04;98683.25;;;3.81;90.53
23635;BME280;11994;51.038;16.974;2023-01-09T04:39:30;98681.52;;;3.89;90.57
23635;BME280;11994;51.038;16.974;2023-01-09T04:41:55;98678.93;;;3.96;90.60
23635;BME280;11994;51.038;16.974;2023-01-09T04:44:23;98681.79;;;4.00;90.43
23635;BME280;11994;51.038;16.974;2023-01-09T04:46:52;98679.52;;;4.01;90.28
23635;BME280;11994;51.038;16.974;2023-01-09T04:49:18;98677.20;;;4.04;90.47
23635;BME280;11994;51.038;16.974;2023-01-09T04:51:44;98676.38;;;4.10;90.47
23635;BME280;11994;51.038;16.974;2023-01-09T04:54:09;98675.35;;;4.17;90.53
23635;BME280;11994;51.038;16.974;2023-01-09T04:56:35;98674.34;;;4.23;90.52
23635;BME280;11994;51.038;16.974;2023-01-09T04:59:00;98680.68;;;4.26;90.34
23635;BME280;11994;51.038;16.974;2023-01-09T05:01:26;98681.05;;;4.25;90.06
23635;BME280;11994;51.038;16.974;2023-01-09T05:03:51;98679.52;;;4.24;90.03
23635;BME280;11994;51.038;16.974;2023-01-09T05:06:16;98684.44;;;4.21;89.64
23635;BME280;11994;51.038;16.974;2023-01-09T05:08:42;98681.42;;;4.16;89.56
23635;BME280;11994;51.038;16.974;2023-01-09T05:11:07;98673.04;;;4.12;89.54
23635;BME280;11994;51.038;16.974;2023-01-09T05:13:32;98666.70;;;4.10;89.57
23635;BME280;11994;51.038;16.974;2023-01-09T05:15:58;98670.81;;;4.04;89.50
23635;BME280;11994;51.038;16.974;2023-01-09T05:18:23;98674.75;;;3.98;89.31
23635;BME280;11994;51.038;16.974;2023-01-09T05:20:48;98669.20;;;3.91;89.11
23635;BME280;11994;51.038;16.974;2023-01-09T05:23:14;98661.59;;;3.83;89.03
23635;BME280;11994;51.038;16.974;2023-01-09T05:25:39;98658.85;;;3.74;88.87
23635;BME280;11994;51.038;16.974;2023-01-09T05:28:05;98652.98;;;3.66;88.84
23635;BME280;11994;51.038;16.974;2023-01-09T05:30:30;98656.42;;;3.59;88.97
23635;BME280;11994;51.038;16.974;2023-01-09T05:32:55;98653.91;;;3.55;89.13
23635;BME280;11994;51.038;16.974;2023-01-09T05:35:22;98654.59;;;3.55;89.18
23635;BME280;11994;51.038;16.974;2023-01-09T05:37:47;98653.38;;;3.55;89.41
23635;BME280;11994;51.038;16.974;2023-01-09T05:40:13;98673.36;;;3.51;89.49
23635;BME280;11994;51.038;16.974;2023-01-09T05:42:38;98669.10;;;3.47;89.75
23635;BME280;11994;51.038;16.974;2023-01-09T05:45:05;98675.80;;;3.40;89.96
23635;BME280;11994;51.038;16.974;2023-01-09T05:47:30;98667.83;;;3.33;89.82
23635;BME280;11994;51.038;16.974;2023-01-09T05:49:56;98668.52;;;3.33;90.10
23635;BME280;11994;51.038;16.974;2023-01-09T05:52:22;98661.45;;;3.33;90.63
23635;BME280;11994;51.038;16.974;2023-01-09T05:54:48;98659.40;;;3.32;90.51
23635;BME280;11994;51.038;16.974;2023-01-09T05:57:13;98658.85;;;3.33;90.69
23635;BME280;11994;51.038;16.974;2023-01-09T05:59:39;98653.85;;;3.32;90.60
23635;BME280;11994;51.038;16.974;2023-01-09T06:02:04;98647.46;;;3.31;90.59
23635;BME280;11994;51.038;16.974;2023-01-09T06:04:29;98643.01;;;3.31;90.61
23635;BME280;11994;51.038;16.974;2023-01-09T06:06:55;98640.90;;;3.32;90.86
23635;BME280;11994;51.038;16.974;2023-01-09T06:09:21;98632.09;;;3.31;90.87
23635;BME280;11994;51.038;16.974;2023-01-09T06:11:46;98619.65;;;3.31;90.90
23635;BME280;11994;51.038;16.974;2023-01-09T06:14:11;98617.41;;;3.32;90.92
23635;BME280;11994;51.038;16.974;2023-01-09T06:16:37;98610.42;;;3.36;90.91
23635;BME280;11994;51.038;16.974;2023-01-09T06:19:02;98605.20;;;3.38;90.89
23635;BME280;11994;51.038;16.974;2023-01-09T06:21:28;98597.16;;;3.42;90.93
23635;BME280;11994;51.038;16.974;2023-01-09T06:23:54;98597.55;;;3.48;90.91
23635;BME280;11994;51.038;16.974;2023-01-09T06:26:20;98599.01;;;3.53;90.98
23635;BME280;11994;51.038;16.974;2023-01-09T06:28:46;98600.13;;;3.56;91.16
23635;BME280;11994;51.038;16.974;2023-01-09T06:31:11;98609.40;;;3.59;91.01
23635;BME280;11994;51.038;16.974;2023-01-09T06:33:37;98611.20;;;3.63;90.99
23635;BME280;11994;51.038;16.974;2023-01-09T06:36:03;98605.47;;;3.65;90.83
23635;BME280;11994;51.038;16.974;2023-01-09T06:38:28;98597.80;;;3.68;90.83
23635;BME280;11994;51.038;16.974;2023-01-09T06:40:54;98602.64;;;3.68;90.73
23635;BME280;11994;51.038;16.974;2023-01-09T06:43:19;98596.34;;;3.71;90.65
23635;BME280;11994;51.038;16.974;2023-01-09T06:45:44;98597.83;;;3.74;90.65
23635;BME280;11994;51.038;16.974;2023-01-09T06:48:10;98598.39;;;3.80;90.60
23635;BME280;11994;51.038;16.974;2023-01-09T06:50:36;98592.66;;;3.81;90.57
23635;BME280;11994;51.038;16.974;2023-01-09T06:53:02;98589.58;;;3.80;90.55
23635;BME280;11994;51.038;16.974;2023-01-09T06:55:27;98592.59;;;3.77;90.34
23635;BME280;11994;51.038;16.974;2023-01-09T06:57:53;98595.33;;;3.70;90.35
23635;BME280;11994;51.038;16.974;2023-01-09T07:00:20;98597.14;;;3.67;90.30
23635;BME280;11994;51.038;16.974;2023-01-09T07:02:46;98602.23;;;3.63;90.47
23635;BME280;11994;51.038;16.974;2023-01-09T07:05:11;98609.18;;;3.61;90.42
23635;BME280;11994;51.038;16.974;2023-01-09T07:07:38;98606.55;;;3.63;90.67
23635;BME280;11994;51.038;16.974;2023-01-09T07:10:04;98607.15;;;3.67;90.76
23635;BME280;11994;51.038;16.974;2023-01-09T07:12:30;98605.20;;;3.70;90.78
23635;BME280;11994;51.038;16.974;2023-01-09T07:14:55;98605.85;;;3.71;90.89
23635;BME280;11994;51.038;16.974;2023-01-09T07:17:21;98606.17;;;3.72;90.86
23635;BME280;11994;51.038;16.974;2023-01-09T07:19:46;98609.64;;;3.72;90.82
23635;BME280;11994;51.038;16.974;2023-01-09T07:22:11;98615.14;;;3.73;90.77
23635;BME280;11994;51.038;16.974;2023-01-09T07:24:37;98612.35;;;3.74;90.89
23635;BME280;11994;51.038;16.974;2023-01-09T07:27:02;98615.42;;;3.76;91.20
23635;BME280;11994;51.038;16.974;2023-01-09T07:29:28;98610.79;;;3.74;91.51
23635;BME280;11994;51.038;16.974;2023-01-09T07:31:53;98611.86;;;3.73;91.46
23635;BME280;11994;51.038;16.974;2023-01-09T07:34:19;98606.84;;;3.73;91.50
23635;BME280;11994;51.038;16.974;2023-01-09T07:36:44;98606.15;;;3.73;91.48
23635;BME280;11994;51.038;16.974;2023-01-09T07:39:11;98596.26;;;3.75;91.58
23635;BME280;11994;51.038;16.974;2023-01-09T07:41:38;98596.68;;;3.79;91.68
23635;BME280;11994;51.038;16.974;2023-01-09T07:44:03;98595.02;;;3.83;91.74
23635;BME280;11994;51.038;16.974;2023-01-09T07:46:29;98589.77;;;3.87;91.97
23635;BME280;11994;51.038;16.974;2023-01-09T07:48:54;98596.51;;;3.87;91.86
23635;BME280;11994;51.038;16.974;2023-01-09T07:51:20;98600.92;;;3.90;91.93
23635;BME280;11994;51.038;16.974;2023-01-09T07:53:45;98602.25;;;3.93;91.90
23635;BME280;11994;51.038;16.974;2023-01-09T07:56:10;98599.22;;;3.96;91.87
23635;BME280;11994;51.038;16.974;2023-01-09T07:58:36;98597.21;;;4.01;92.00
23635;BME280;11994;51.038;16.974;2023-01-09T08:01:03;98597.71;;;4.09;92.03
23635;BME280;11994;51.038;16.974;2023-01-09T08:03:28;98596.55;;;4.13;91.93
23635;BME280;11994;51.038;16.974;2023-01-09T08:05:54;98597.34;;;4.17;92.05
23635;BME280;11994;51.038;16.974;2023-01-09T08:08:19;98596.44;;;4.19;91.88
23635;BME280;11994;51.038;16.974;2023-01-09T08:10:45;98595.04;;;4.19;91.84
23635;BME280;11994;51.038;16.974;2023-01-09T08:13:10;98596.27;;;4.19;91.74
23635;BME280;11994;51.038;16.974;2023-01-09T08:15:36;98595.71;;;4.20;91.75
23635;BME280;11994;51.038;16.974;2023-01-09T08:18:01;98596.73;;;4.20;91.78
23635;BME280;11994;51.038;16.974;2023-01-09T08:20:26;98593.27;;;4.22;91.84
23635;BME280;11994;51.038;16.974;2023-01-09T08:22:52;98599.65;;;4.22;91.98
23635;BME280;11994;51.038;16.974;2023-01-09T08:25:21;98604.70;;;4.21;91.94
23635;BME280;11994;51.038;16.974;2023-01-09T08:27:46;98604.35;;;4.20;91.99
23635;BME280;11994;51.038;16.974;2023-01-09T08:30:13;98603.51;;;4.19;91.96
23635;BME280;11994;51.038;16.974;2023-01-09T08:32:39;98601.21;;;4.22;92.05
23635;BME280;11994;51.038;16.974;2023-01-09T08:35:05;98603.77;;;4.23;91.95
23635;BME280;11994;51.038;16.974;2023-01-09T08:37:31;98606.00;;;4.24;92.06
23635;BME280;11994;51.038;16.974;2023-01-09T08:39:57;98603.22;;;4.24;92.06
23635;BME280;11994;51.038;16.974;2023-01-09T08:42:22;98600.09;;;4.24;92.10
23635;BME280;11994;51.038;16.974;2023-01-09T08:45:09;98599.29;;;4.22;92.20
23635;BME280;11994;51.038;16.974;2023-01-09T08:47:52;98594.45;;;4.22;92.27
23635;BME280;11994;51.038;16.974;2023-01-09T08:50:19;98597.18;;;4.24;92.42
23635;BME280;11994;51.038;16.974;2023-01-09T08:52:44;98596.64;;;4.24;92.68
23635;BME280;11994;51.038;16.974;2023-01-09T08:55:09;98590.94;;;4.24;93.04
23635;BME280;11994;51.038;16.974;2023-01-09T08:57:35;98591.50;;;4.22;93.32
23635;BME280;11994;51.038;16.974;2023-01-09T09:00:00;98587.32;;;4.24;93.67
23635;BME280;11994;51.038;16.974;2023-01-09T09:02:25;98587.07;;;4.27;94.24
23635;BME280;11994;51.038;16.974;2023-01-09T09:04:51;98582.58;;;4.27;94.53
23635;BME280;11994;51.038;16.974;2023-01-09T09:07:20;98584.48;;;4.26;94.33
23635;BME280;11994;51.038;16.974;2023-01-09T09:09:53;98581.98;;;4.30;94.38
23635;BME280;11994;51.038;16.974;2023-01-09T09:12:20;98578.86;;;4.37;94.24
23635;BME280;11994;51.038;16.974;2023-01-09T09:14:45;98576.94;;;4.44;94.33
23635;BME280;11994;51.038;16.974;2023-01-09T09:17:29;98578.61;;;4.53;94.39
23635;BME280;11994;51.038;16.974;2023-01-09T09:19:56;98570.47;;;4.60;94.53
23635;BME280;11994;51.038;16.974;2023-01-09T09:22:22;98571.35;;;4.65;94.54
23635;BME280;11994;51.038;16.974;2023-01-09T09:24:47;98579.32;;;4.72;94.63
23635;BME280;11994;51.038;16.974;2023-01-09T09:27:12;98586.94;;;4.78;94.62
23635;BME280;11994;51.038;16.974;2023-01-09T09:29:38;98586.14;;;4.88;94.85
23635;BME280;11994;51.038;16.974;2023-01-09T09:32:03;98588.89;;;5.01;94.89
23635;BME280;11994;51.038;16.974;2023-01-09T09:34:29;98587.45;;;5.10;94.74
23635;BME280;11994;51.038;16.974;2023-01-09T09:36:54;98593.55;;;5.15;94.49
23635;BME280;11994;51.038;16.974;2023-01-09T09:39:19;98592.79;;;5.16;94.40
23635;BME280;11994;51.038;16.974;2023-01-09T09:48:06;98595.09;;;5.27;94.31
23635;BME280;11994;51.038;16.974;2023-01-09T09:53:19;98593.79;;;5.42;94.74
23635;BME280;11994;51.038;16.974;2023-01-09T09:55:47;98589.47;;;5.53;95.03
23635;BME280;11994;51.038;16.974;2023-01-09T10:00:39;98589.33;;;5.69;94.94
23635;BME280;11994;51.038;16.974;2023-01-09T10:03:32;98586.82;;;5.78;94.88
23635;BME280;11994;51.038;16.974;2023-01-09T10:06:04;98587.54;;;5.89;95.14
23635;BME280;11994;51.038;16.974;2023-01-09T10:11:36;98589.74;;;5.96;94.87
23635;BME280;11994;51.038;16.974;2023-01-09T10:14:05;98592.90;;;6.06;95.19
23635;BME280;11994;51.038;16.974;2023-01-09T10:28:35;98596.75;;;6.57;95.87
23635;BME280;11994;51.038;16.974;2023-01-09T10:36:36;98597.04;;;6.64;95.01
23635;BME280;11994;51.038;16.974;2023-01-09T10:39:11;98587.13;;;6.64;94.67
23635;BME280;11994;51.038;16.974;2023-01-09T10:42:02;98581.48;;;6.62;94.78
23635;BME280;11994;51.038;16.974;2023-01-09T10:44:32;98578.36;;;6.67;95.18
23635;BME280;11994;51.038;16.974;2023-01-09T10:47:06;98580.02;;;6.74;95.33
23635;BME280;11994;51.038;16.974;2023-01-09T10:49:36;98575.70;;;6.78;95.35
23635;BME280;11994;51.038;16.974;2023-01-09T10:52:14;98571.56;;;6.87;95.55
23635;BME280;11994;51.038;16.974;2023-01-09T10:54:48;98571.23;;;6.96;95.50
23635;BME280;11994;51.038;16.974;2023-01-09T10:57:29;98572.08;;;7.02;95.50
23635;BME280;11994;51.038;16.974;2023-01-09T10:59:57;98575.66;;;7.03;95.33
23635;BME280;11994;51.038;16.974;2023-01-09T11:02:26;98578.67;;;7.07;95.55
23635;BME280;11994;51.038;16.974;2023-01-09T11:04:53;98576.66;;;7.09;95.59
23635;BME280;11994;51.038;16.974;2023-01-09T11:07:22;98576.84;;;7.14;95.57
23635;BME280;11994;51.038;16.974;2023-01-09T11:10:06;98570.73;;;7.24;95.78
23635;BME280;11994;51.038;16.974;2023-01-09T11:12:33;98569.69;;;7.38;96.20
23635;BME280;11994;51.038;16.974;2023-01-09T11:17:40;98566.16;;;7.62;96.38
23635;BME280;11994;51.038;16.974;2023-01-09T11:22:51;98559.71;;;7.67;96.03
23635;BME280;11994;51.038;16.974;2023-01-09T11:25:24;98557.36;;;7.74;96.13
23635;BME280;11994;51.038;16.974;2023-01-09T11:30:28;98560.05;;;7.94;96.67
23635;BME280;11994;51.038;16.974;2023-01-09T11:32:56;98563.33;;;8.03;96.57
23635;BME280;11994;51.038;16.974;2023-01-09T11:35:29;98562.15;;;8.01;96.03
23635;BME280;11994;51.038;16.974;2023-01-09T11:38:22;98562.92;;;8.04;96.13
23635;BME280;11994;51.038;16.974;2023-01-09T11:40:49;98563.22;;;8.14;96.39
23635;BME280;11994;51.038;16.974;2023-01-09T11:45:43;98558.60;;;8.30;96.56
23635;BME280;11994;51.038;16.974;2023-01-09T11:49:03;98558.23;;;8.30;96.05
23635;BME280;11994;51.038;16.974;2023-01-09T11:51:15;98559.19;;;8.28;95.83
23635;BME280;11994;51.038;16.974;2023-01-09T11:53:54;98561.68;;;8.27;95.67
23635;BME280;11994;51.038;16.974;2023-01-09T11:56:22;98565.70;;;8.31;95.89
23635;BME280;11994;51.038;16.974;2023-01-09T11:58:48;98561.64;;;8.36;96.15
23635;BME280;11994;51.038;16.974;2023-01-09T12:28:33;98578.21;;;8.64;95.71
23635;BME280;11994;51.038;16.974;2023-01-09T12:39:41;98581.96;;;8.74;95.82
23635;BME280;11994;51.038;16.974;2023-01-09T12:45:41;98587.95;;;8.77;95.43
23635;BME280;11994;51.038;16.974;2023-01-09T12:51:24;98597.80;;;8.75;95.12
23635;BME280;11994;51.038;16.974;2023-01-09T12:56:46;98600.55;;;8.72;94.98
23635;BME280;11994;51.038;16.974;2023-01-09T13:02:00;98620.60;;;8.76;94.92
23635;BME280;11994;51.038;16.974;2023-01-09T13:04:31;98627.92;;;8.75;94.80
23635;BME280;11994;51.038;16.974;2023-01-09T13:07:05;98629.58;;;8.74;94.74
23635;BME280;11994;51.038;16.974;2023-01-09T13:09:41;98628.94;;;8.73;94.77
23635;BME280;11994;51.038;16.974;2023-01-09T13:12:14;98629.23;;;8.70;94.65
23635;BME280;11994;51.038;16.974;2023-01-09T13:15:25;98622.48;;;8.64;94.34
23635;BME280;11994;51.038;16.974;2023-01-09T13:18:00;98621.61;;;8.64;94.63
23635;BME280;11994;51.038;16.974;2023-01-09T13:20:35;98620.09;;;8.63;94.46
23635;BME280;11994;51.038;16.974;2023-01-09T13:23:03;98619.80;;;8.66;94.74
23635;BME280;11994;51.038;16.974;2023-01-09T13:25:42;98623.20;;;8.68;94.57
23635;BME280;11994;51.038;16.974;2023-01-09T13:28:18;98635.27;;;8.71;94.74
23635;BME280;11994;51.038;16.974;2023-01-09T13:33:45;98636.61;;;8.80;94.71
23635;BME280;11994;51.038;16.974;2023-01-09T13:36:31;98642.03;;;8.84;94.82
23635;BME280;11994;51.038;16.974;2023-01-09T13:38:58;98642.74;;;8.92;94.97
23635;BME280;11994;51.038;16.974;2023-01-09T13:41:25;98641.11;;;8.93;94.75
23635;BME280;11994;51.038;16.974;2023-01-09T13:44:26;98648.66;;;8.92;94.64
23635;BME280;11994;51.038;16.974;2023-01-09T13:46:57;98658.11;;;8.95;94.83
23635;BME280;11994;51.038;16.974;2023-01-09T13:49:30;98668.00;;;9.01;94.74
23635;BME280;11994;51.038;16.974;2023-01-09T13:52:05;98684.53;;;9.05;94.82
23635;BME280;11994;51.038;16.974;2023-01-09T13:59:44;98703.23;;;8.96;93.75
23635;BME280;11994;51.038;16.974;2023-01-09T14:05:03;98699.59;;;8.83;93.24
23635;BME280;11994;51.038;16.974;2023-01-09T14:07:33;98704.65;;;8.83;93.23
23635;BME280;11994;51.038;16.974;2023-01-09T14:10:03;98704.52;;;8.82;93.34
23635;BME280;11994;51.038;16.974;2023-01-09T14:12:37;98703.41;;;8.79;93.14
23635;BME280;11994;51.038;16.974;2023-01-09T14:15:30;98710.09;;;8.74;92.80
23635;BME280;11994;51.038;16.974;2023-01-09T14:18:13;98720.33;;;8.71;92.85
23635;BME280;11994;51.038;16.974;2023-01-09T14:20:58;98724.71;;;8.70;92.89
23635;BME280;11994;51.038;16.974;2023-01-09T14:23:28;98731.23;;;8.68;92.82
23635;BME280;11994;51.038;16.974;2023-01-09T14:25:55;98737.35;;;8.68;92.87
23635;BME280;11994;51.038;16.974;2023-01-09T14:28:25;98742.45;;;8.67;92.77
23635;BME280;11994;51.038;16.974;2023-01-09T14:43:57;98773.60;;;8.63;92.67
23635;BME280;11994;51.038;16.974;2023-01-09T14:46:30;98783.66;;;8.64;92.45
23635;BME280;11994;51.038;16.974;2023-01-09T14:49:23;98780.63;;;8.62;92.31
23635;BME280;11994;51.038;16.974;2023-01-09T14:51:52;98785.22;;;8.61;92.14
23635;BME280;11994;51.038;16.974;2023-01-09T14:54:26;98783.08;;;8.61;92.10
23635;BME280;11994;51.038;16.974;2023-01-09T14:56:52;98782.20;;;8.66;91.91
23635;BME280;11994;51.038;16.974;2023-01-09T14:59:18;98782.95;;;8.73;91.86
23635;BME280;11994;51.038;16.974;2023-01-09T15:01:46;98788.27;;;8.80;91.49
23635;BME280;11994;51.038;16.974;2023-01-09T15:04:48;98790.20;;;8.84;91.52
23635;BME280;11994;51.038;16.974;2023-01-09T15:07:19;98800.80;;;8.89;91.29
23635;BME280;11994;51.038;16.974;2023-01-09T15:09:47;98812.16;;;8.93;91.31
23635;BME280;11994;51.038;16.974;2023-01-09T15:12:18;98818.65;;;8.92;90.99
23635;BME280;11994;51.038;16.974;2023-01-09T15:14:45;98822.98;;;8.88;90.98
23635;BME280;11994;51.038;16.974;2023-01-09T15:17:20;98822.66;;;8.88;90.83
23635;BME280;11994;51.038;16.974;2023-01-09T15:19:47;98819.09;;;8.90;90.51
23635;BME280;11994;51.038;16.974;2023-01-09T15:22:22;98822.34;;;8.91;90.55
23635;BME280;11994;51.038;16.974;2023-01-09T15:24:48;98828.36;;;8.93;90.32
23635;BME280;11994;51.038;16.974;2023-01-09T15:27:14;98834.20;;;8.96;90.46
23635;BME280;11994;51.038;16.974;2023-01-09T15:29:40;98836.75;;;8.97;90.24
23635;BME280;11994;51.038;16.974;2023-01-09T15:32:17;98830.64;;;8.93;90.05
23635;BME280;11994;51.038;16.974;2023-01-09T15:34:47;98827.94;;;8.91;89.58
23635;BME280;11994;51.038;16.974;2023-01-09T15:37:42;98823.92;;;8.91;89.56